createdAt,value
2022-08-24T00:03:00.968Z,63.40
2022-08-24T00:06:05.162Z,62.93
2022-08-24T00:09:09.133Z,63.16
2022-08-24T00:12:11.832Z,63.30
2022-08-24T00:15:18.233Z,63.17
2022-08-24T00:18:20.825Z,63.89
2022-08-24T00:21:23.641Z,64.14
2022-08-24T00:24:28.220Z,64.69
2022-08-24T00:27:30.896Z,64.63
2022-08-24T00:30:35.265Z,65.12
2022-08-24T00:33:38.418Z,64.75
2022-08-24T00:36:42.950Z,65.32
2022-08-24T00:39:46.934Z,65.01
2022-08-24T00:42:50.659Z,65.57
2022-08-24T00:46:06.047Z,64.89
2022-08-24T00:49:13.210Z,65.75
2022-08-24T00:52:20.401Z,66.55
2022-08-24T00:55:28.940Z,66.43
2022-08-24T00:58:36.807Z,67.80
2022-08-24T01:01:42.966Z,67.17
2022-08-24T01:04:50.479Z,66.93
2022-08-24T01:07:53.510Z,67.68
2022-08-24T01:11:02.158Z,68.48
2022-08-24T01:14:06.084Z,68.37
2022-08-24T01:17:26.448Z,68.52
2022-08-24T01:20:29.145Z,68.26
2022-08-24T01:23:39.569Z,69.66
2022-08-24T01:26:46.933Z,70.79
2022-08-24T01:29:51.063Z,70.97
2022-08-24T01:32:55.422Z,70.62
2022-08-24T01:36:02.024Z,70.28
2022-08-24T01:39:12.175Z,70.72
2022-08-24T01:42:15.328Z,70.29
2022-08-24T01:45:20.130Z,69.88
2022-08-24T01:48:23.630Z,70.31
2022-08-24T01:51:29.900Z,70.31
2022-08-24T01:54:34.178Z,71.18
2022-08-24T01:57:36.757Z,72.02
2022-08-24T02:00:39.686Z,71.47
2022-08-24T02:03:42.260Z,71.85
2022-08-24T02:06:45.660Z,72.14
2022-08-24T02:09:49.775Z,72.37
2022-08-24T02:12:58.612Z,72.93
2022-08-24T02:16:01.395Z,73.21
2022-08-24T02:19:04.186Z,74.37
2022-08-24T02:22:07.322Z,74.68
2022-08-24T02:25:11.387Z,74.51
2022-08-24T02:28:16.986Z,74.32
2022-08-24T02:31:19.600Z,74.13
2022-08-24T02:34:22.441Z,75.62
2022-08-24T02:37:25.001Z,76.01
2022-08-24T02:40:29.747Z,75.76
2022-08-24T02:43:32.491Z,75.55
2022-08-24T02:46:42.630Z,75.16
2022-08-24T02:49:45.621Z,75.35
2022-08-24T02:52:48.612Z,75.88
2022-08-24T02:55:53.022Z,75.98
2022-08-24T02:58:55.626Z,75.76
2022-08-24T03:01:58.456Z,76.01
2022-08-24T03:05:01.555Z,75.87
2022-08-24T03:08:05.126Z,76.26
2022-08-24T03:11:09.393Z,76.77
2022-08-24T03:14:12.266Z,77.42
2022-08-24T03:17:14.898Z,77.29
2022-08-24T03:20:21.121Z,77.71
2022-08-24T03:23:24.580Z,78.17
2022-08-24T03:26:28.789Z,78.57
2022-08-24T03:29:33.703Z,78.37
2022-08-24T03:32:36.573Z,78.67
2022-08-24T03:35:39.665Z,80.28
2022-08-24T03:38:42.691Z,79.88
2022-08-24T03:41:46.661Z,79.93
2022-08-24T03:44:49.238Z,80.22
2022-08-24T03:47:52.542Z,80.02
2022-08-24T03:50:55.702Z,80.17
2022-08-24T03:54:00.705Z,79.49
2022-08-24T03:57:04.784Z,82.08
2022-08-24T04:00:11.662Z,81.27
2022-08-24T04:03:15.225Z,81.29
2022-08-24T04:06:19.951Z,81.59
2022-08-24T04:09:22.524Z,82.20
2022-08-24T04:12:26.533Z,81.94
2022-08-24T04:15:31.622Z,82.53
2022-08-24T04:18:34.303Z,82.87
2022-08-24T04:21:38.116Z,82.99
2022-08-24T04:24:40.741Z,82.81
2022-08-24T04:27:44.697Z,83.81
2022-08-24T04:30:50.344Z,84.14
2022-08-24T04:33:53.994Z,84.32
2022-08-24T04:36:56.771Z,84.76
2022-08-24T04:39:59.475Z,84.36
2022-08-24T04:43:03.661Z,86.18
2022-08-24T04:46:08.395Z,85.97
2022-08-24T04:49:11.407Z,85.97
2022-08-24T04:52:13.985Z,85.71
2022-08-24T04:55:16.646Z,85.81
2022-08-24T04:58:20.673Z,85.92
2022-08-24T05:01:25.303Z,87.89
2022-08-24T05:04:27.943Z,88.98
2022-08-24T05:07:32.157Z,88.56
2022-08-24T05:10:34.810Z,88.42
2022-08-24T05:13:39.136Z,88.04
2022-08-24T05:16:52.431Z,88.72
2022-08-24T05:19:55.520Z,88.76
2022-08-24T05:23:02.514Z,90.88
2022-08-24T05:26:08.149Z,89.67
2022-08-24T05:29:12.446Z,89.67
2022-08-24T05:32:15.202Z,90.90
2022-08-24T05:35:17.901Z,90.42
2022-08-24T05:38:20.497Z,90.03
2022-08-24T05:41:23.878Z,90.81
2022-08-24T05:44:31.142Z,92.05
2022-08-24T05:47:34.604Z,93.00
2022-08-24T05:50:37.822Z,92.25
2022-08-24T05:53:41.619Z,94.09
2022-08-24T05:56:44.709Z,93.16
2022-08-24T05:59:48.798Z,93.88
2022-08-24T06:02:52.819Z,93.79
2022-08-24T06:05:55.942Z,94.61
2022-08-24T06:09:00.344Z,95.06
2022-08-24T06:12:03.398Z,95.97
2022-08-24T06:15:08.242Z,94.00
2022-08-24T06:18:11.002Z,92.66
2022-08-24T06:21:16.983Z,94.12
2022-08-24T06:24:40.947Z,93.53
2022-08-24T06:27:42.645Z,94.12
2022-08-24T06:30:46.602Z,93.56
2022-08-24T06:33:49.255Z,93.54
2022-08-24T06:36:52.749Z,90.95
2022-08-24T06:39:58.113Z,91.48
2022-08-24T06:43:04.293Z,91.02
2022-08-24T06:46:08.567Z,91.43
2022-08-24T06:49:11.238Z,90.40
2022-08-24T06:52:13.885Z,90.71
2022-08-24T06:55:16.594Z,90.47
2022-08-24T06:58:19.532Z,90.59
2022-08-24T07:01:25.735Z,90.65
2022-08-24T07:04:28.934Z,90.53
2022-08-24T07:07:31.537Z,89.70
2022-08-24T07:10:34.690Z,89.59
2022-08-24T07:13:37.379Z,89.10
2022-08-24T07:16:41.309Z,87.09
2022-08-24T07:19:43.877Z,86.62
2022-08-24T07:22:46.641Z,87.33
2022-08-24T07:25:54.217Z,86.04
2022-08-24T07:29:05.344Z,86.33
2022-08-24T07:32:10.105Z,84.57
2022-08-24T07:35:12.716Z,84.76
2022-08-24T07:38:15.343Z,84.99
2022-08-24T07:41:40.384Z,83.83
2022-08-24T07:44:40.789Z,82.94
2022-08-24T07:47:54.677Z,83.55
2022-08-24T07:50:59.578Z,82.30
2022-08-24T07:54:03.655Z,82.25
2022-08-24T07:57:09.919Z,81.26
2022-08-24T08:00:16.957Z,80.63
2022-08-24T08:03:21.789Z,81.16
2022-08-24T08:06:24.382Z,80.33
2022-08-24T08:09:27.022Z,78.74
2022-08-24T08:12:29.636Z,78.30
2022-08-24T08:15:32.860Z,78.00
2022-08-24T08:18:37.094Z,74.06
2022-08-24T08:22:00.288Z,74.92
2022-08-24T08:25:02.896Z,73.07
2022-08-24T08:28:18.459Z,71.46
2022-08-24T08:31:28.245Z,70.64
2022-08-24T08:34:32.347Z,66.90
2022-08-24T08:40:57.036Z,66.53
2022-08-24T08:44:04.754Z,65.23
2022-08-24T08:47:23.309Z,65.94
2022-08-24T08:50:32.682Z,64.64
2022-08-24T08:54:06.653Z,62.43
2022-08-24T08:57:51.209Z,60.51
2022-08-24T09:01:05.148Z,58.60
2022-08-24T09:04:22.864Z,57.99
2022-08-24T09:07:43.747Z,56.58
2022-08-24T09:10:56.639Z,53.65
2022-08-24T09:14:36.130Z,52.63
2022-08-24T09:18:04.714Z,52.56
2022-08-24T09:21:24.012Z,53.88
2022-08-24T09:24:42.037Z,50.89
2022-08-24T09:28:00.641Z,52.85
2022-08-24T09:31:22.916Z,49.69
2022-08-24T09:34:39.941Z,48.71
2022-08-24T09:37:58.779Z,49.00
2022-08-24T09:41:25.080Z,49.50
2022-08-24T09:44:48.173Z,48.18
2022-08-24T09:48:09.502Z,46.58
2022-08-24T09:51:46.948Z,45.66
2022-08-24T09:55:26.670Z,44.91
2022-08-24T09:58:50.397Z,45.03
2022-08-24T10:02:14.197Z,44.21
2022-08-24T10:05:27.820Z,42.43
2022-08-24T10:08:45.298Z,41.68
2022-08-24T10:11:56.214Z,40.61
2022-08-24T10:15:06.330Z,41.18
2022-08-24T10:18:38.623Z,38.29
2022-08-24T10:21:54.082Z,39.63
2022-08-24T10:25:10.410Z,37.87
2022-08-24T10:28:39.989Z,39.55
2022-08-24T10:32:01.034Z,38.87
2022-08-24T10:35:09.429Z,38.19
2022-08-24T10:38:57.725Z,38.40
2022-08-24T10:42:54.573Z,36.36
2022-08-24T10:46:24.085Z,36.42
2022-08-24T10:50:20.180Z,35.86
2022-08-24T10:53:27.355Z,35.67
2022-08-24T10:56:39.882Z,35.44
2022-08-24T10:59:54.938Z,34.13
2022-08-24T11:03:11.946Z,34.62
2022-08-24T11:06:16.315Z,33.10
2022-08-24T11:09:20.272Z,33.78
2022-08-24T11:12:27.370Z,32.38
2022-08-24T11:15:29.977Z,31.74
2022-08-24T11:18:49.373Z,33.23
2022-08-24T11:21:53.768Z,33.23
2022-08-24T11:25:00.211Z,32.27
2022-08-24T11:28:09.568Z,30.77
2022-08-24T11:31:14.306Z,30.35
2022-08-24T11:34:19.165Z,30.59
2022-08-24T11:37:29.126Z,30.10
2022-08-24T11:40:40.750Z,30.99
2022-08-24T11:43:58.926Z,29.97
2022-08-24T11:47:11.563Z,30.00
2022-08-24T11:50:25.581Z,30.25
2022-08-24T11:57:00.025Z,28.85
2022-08-24T12:00:07.333Z,29.86
2022-08-24T12:03:28.190Z,29.61
2022-08-24T12:06:43.081Z,29.35
2022-08-24T12:10:00.725Z,28.48
2022-08-24T12:13:11.698Z,29.42
2022-08-24T12:16:22.263Z,29.10
2022-08-24T12:19:29.688Z,29.03
2022-08-24T12:22:33.546Z,30.16
2022-08-24T12:25:53.692Z,29.65
2022-08-24T12:29:03.636Z,28.67
2022-08-24T12:32:11.190Z,28.27
2022-08-24T12:35:19.390Z,27.86
2022-08-24T12:38:26.897Z,29.58
2022-08-24T12:41:34.338Z,30.05
2022-08-24T12:44:46.769Z,29.68
2022-08-24T12:47:55.006Z,29.97
2022-08-24T12:51:11.943Z,28.66
2022-08-24T12:54:40.389Z,29.01
2022-08-24T12:57:55.052Z,29.56
2022-08-24T13:01:06.061Z,28.03
2022-08-24T13:04:16.478Z,27.97
2022-08-24T13:07:30.762Z,28.41
2022-08-24T13:10:42.194Z,28.29
2022-08-24T13:14:05.452Z,28.84
2022-08-24T13:17:13.498Z,28.50
2022-08-24T13:20:21.296Z,27.65
2022-08-24T13:23:24.963Z,28.44
2022-08-24T13:26:27.668Z,29.05
2022-08-24T13:29:35.492Z,27.69
2022-08-24T13:32:44.281Z,27.65
2022-08-24T13:36:16.695Z,27.54
2022-08-24T13:39:40.381Z,27.95
2022-08-24T13:43:03.981Z,27.88
2022-08-24T13:46:20.116Z,27.57
2022-08-24T13:49:38.820Z,28.78
2022-08-24T13:53:04.848Z,27.82
2022-08-24T13:56:32.597Z,28.51
2022-08-24T13:59:56.852Z,27.99
2022-08-24T14:03:14.983Z,28.25
2022-08-24T14:06:28.480Z,30.11
2022-08-24T14:09:41.975Z,28.47
2022-08-24T14:13:07.635Z,29.47
2022-08-24T14:16:43.777Z,28.79
2022-08-24T14:20:02.166Z,29.47
2022-08-24T14:23:17.835Z,29.97
2022-08-24T14:27:01.957Z,29.86
2022-08-24T14:30:39.659Z,29.80
2022-08-24T14:33:50.626Z,30.71
2022-08-24T14:36:59.769Z,31.52
2022-08-24T14:40:17.944Z,31.46
2022-08-24T14:43:30.981Z,31.52
2022-08-24T14:46:41.582Z,31.14
2022-08-24T14:49:58.405Z,30.89
2022-08-24T14:53:18.812Z,31.65
2022-08-24T14:56:43.914Z,31.56
2022-08-24T14:59:58.613Z,31.79
2022-08-24T15:03:25.810Z,32.08
2022-08-24T15:06:38.439Z,32.24
2022-08-24T15:09:44.887Z,31.46
2022-08-24T15:12:59.039Z,31.31
2022-08-24T15:16:11.730Z,32.39
2022-08-24T15:19:23.007Z,31.29
2022-08-24T15:22:40.959Z,32.65
2022-08-24T15:25:51.144Z,32.63
2022-08-24T15:28:56.951Z,33.27
2022-08-24T15:32:05.055Z,33.38
2022-08-24T15:35:08.057Z,34.98
2022-08-24T15:38:22.288Z,34.06
2022-08-24T15:41:31.025Z,34.36
2022-08-24T15:44:36.725Z,34.57
2022-08-24T15:47:41.651Z,35.01
2022-08-24T15:50:48.977Z,34.69
2022-08-24T15:53:51.601Z,36.54
2022-08-24T15:56:57.428Z,36.30
2022-08-24T16:00:12.697Z,36.75
2022-08-24T16:03:21.453Z,36.48
2022-08-24T16:06:27.682Z,37.28
2022-08-24T16:09:37.573Z,36.69
2022-08-24T16:12:40.574Z,37.47
2022-08-24T16:15:51.223Z,37.96
2022-08-24T16:18:58.007Z,37.01
2022-08-24T16:22:03.826Z,37.70
2022-08-24T16:25:15.769Z,37.74
2022-08-24T16:28:35.703Z,39.30
2022-08-24T16:31:51.767Z,39.64
2022-08-24T16:34:56.849Z,38.76
2022-08-24T16:37:59.543Z,39.43
2022-08-24T16:41:04.055Z,38.97
2022-08-24T16:44:06.705Z,40.22
2022-08-24T16:47:11.230Z,40.06
2022-08-24T16:50:15.031Z,40.84
2022-08-24T16:53:17.686Z,39.78
2022-08-24T16:56:20.390Z,38.68
2022-08-24T16:59:27.469Z,39.02
2022-08-24T17:02:31.494Z,39.88
2022-08-24T17:05:34.717Z,40.41
2022-08-24T17:08:37.390Z,40.13
2022-08-24T17:11:40.361Z,40.58
2022-08-24T17:14:44.308Z,41.28
2022-08-24T17:17:56.117Z,40.76
2022-08-24T17:21:01.234Z,42.14
2022-08-24T17:24:04.366Z,42.11
2022-08-24T17:27:07.198Z,41.79
2022-08-24T17:30:11.306Z,42.96
2022-08-24T17:33:15.236Z,44.00
2022-08-24T17:36:21.219Z,44.02
2022-08-24T17:39:26.736Z,44.84
2022-08-24T17:42:49.525Z,45.44
2022-08-24T17:45:53.177Z,46.14
2022-08-24T17:48:57.796Z,46.01
2022-08-24T17:52:00.611Z,46.80
2022-08-24T17:55:03.229Z,46.96
2022-08-24T17:58:05.833Z,47.56
2022-08-24T18:01:08.452Z,48.10
2022-08-24T18:04:12.629Z,47.65
2022-08-24T18:07:35.864Z,48.65
2022-08-24T18:10:42.523Z,49.50
2022-08-24T18:13:45.109Z,49.49
2022-08-24T18:16:54.014Z,49.64
2022-08-24T18:20:01.070Z,49.95
2022-08-24T18:23:03.931Z,50.18
2022-08-24T18:26:09.320Z,50.51
2022-08-24T18:29:15.746Z,51.06
2022-08-24T18:32:18.337Z,51.41
2022-08-24T18:35:22.796Z,51.32
2022-08-24T18:38:26.704Z,52.01
2022-08-24T18:41:35.682Z,52.46
2022-08-24T18:44:39.405Z,53.17
2022-08-24T18:47:42.323Z,54.24
2022-08-24T18:50:46.255Z,54.95
2022-08-24T18:53:49.214Z,56.14
2022-08-24T18:56:52.250Z,56.21
2022-08-24T18:59:55.038Z,57.24
2022-08-24T19:03:02.221Z,57.60
2022-08-24T19:06:07.296Z,57.73
2022-08-24T19:09:09.929Z,58.38
2022-08-24T19:12:13.169Z,58.99
2022-08-24T19:15:31.923Z,59.47
2022-08-24T19:18:39.313Z,59.67
2022-08-24T19:21:43.321Z,59.96
2022-08-24T19:24:47.034Z,60.41
2022-08-24T19:27:53.678Z,60.65
2022-08-24T19:30:58.086Z,61.91
2022-08-24T19:34:03.535Z,61.53
2022-08-24T19:37:07.894Z,62.04
2022-08-24T19:40:11.472Z,62.74
2022-08-24T19:43:14.910Z,62.99
2022-08-24T19:46:17.915Z,63.29
2022-08-24T19:49:20.850Z,63.36
2022-08-24T19:52:25.115Z,64.25
2022-08-24T19:55:28.029Z,64.50
2022-08-24T19:58:38.048Z,64.94
2022-08-24T20:01:40.711Z,66.06
2022-08-24T20:04:43.319Z,66.46
2022-08-24T20:07:47.745Z,67.49
2022-08-24T20:10:52.851Z,68.00
2022-08-24T20:13:55.517Z,68.59
2022-08-24T20:16:58.136Z,69.27
2022-08-24T20:20:02.148Z,69.94
2022-08-24T20:23:07.157Z,70.05
2022-08-24T20:26:11.936Z,70.89
2022-08-24T20:29:15.106Z,71.85
2022-08-24T20:32:18.579Z,72.38
2022-08-24T20:35:21.229Z,72.54
2022-08-24T20:38:25.727Z,72.95
2022-08-24T20:41:35.377Z,73.18
2022-08-24T20:44:37.948Z,73.31
2022-08-24T20:47:44.878Z,74.30
2022-08-24T20:50:47.650Z,74.52
2022-08-24T20:53:51.593Z,75.42
2022-08-24T20:56:54.220Z,75.89
2022-08-24T20:59:56.781Z,75.90
2022-08-24T21:02:59.411Z,76.27
2022-08-24T21:06:02.571Z,76.71
2022-08-24T21:09:07.361Z,76.29
2022-08-24T21:12:16.700Z,76.54
2022-08-24T21:15:20.846Z,77.31
2022-08-24T21:18:23.404Z,76.91
2022-08-24T21:21:28.435Z,77.69
2022-08-24T21:24:32.362Z,78.11
2022-08-24T21:27:41.566Z,78.04
2022-08-24T21:30:44.177Z,78.22
2022-08-24T21:34:04.398Z,79.29
2022-08-24T21:37:07.216Z,79.62
2022-08-24T21:40:12.428Z,79.27
2022-08-24T21:43:17.860Z,79.54
2022-08-24T21:46:21.964Z,79.68
2022-08-24T21:49:25.030Z,79.38
2022-08-24T21:52:27.693Z,80.20
2022-08-24T21:55:31.652Z,80.14
2022-08-24T21:58:34.295Z,80.52
2022-08-24T22:01:38.672Z,80.62
2022-08-24T22:04:41.473Z,80.33
2022-08-24T22:07:44.388Z,80.18
2022-08-24T22:10:50.205Z,80.60
2022-08-24T22:13:53.919Z,80.47
2022-08-24T22:16:56.511Z,80.71
2022-08-24T22:19:59.106Z,80.84
2022-08-24T22:23:01.710Z,81.06
2022-08-24T22:26:06.645Z,81.54
2022-08-24T22:29:11.115Z,81.33
2022-08-24T22:32:13.719Z,80.92
2022-08-24T22:35:16.365Z,81.81
2022-08-24T22:38:19.439Z,81.95
2022-08-24T22:41:23.683Z,82.72
2022-08-24T22:44:27.686Z,83.32
2022-08-24T22:47:31.677Z,82.84
2022-08-24T22:50:34.295Z,83.79
2022-08-24T22:53:37.012Z,84.04
2022-08-24T22:56:43.593Z,84.06
2022-08-24T22:59:46.210Z,84.16
2022-08-24T23:02:48.772Z,83.74
2022-08-24T23:05:51.318Z,84.29
2022-08-24T23:08:53.965Z,84.41
2022-08-24T23:11:58.239Z,84.84
2022-08-24T23:15:01.315Z,85.59
2022-08-24T23:18:23.884Z,87.81
2022-08-24T23:21:25.955Z,86.54
2022-08-24T23:24:30.352Z,86.77
2022-08-24T23:27:38.408Z,85.95
2022-08-24T23:30:41.516Z,87.50
2022-08-24T23:33:44.206Z,87.62
2022-08-24T23:36:46.965Z,87.76
2022-08-24T23:39:49.574Z,87.27
2022-08-24T23:42:53.504Z,88.04
2022-08-24T23:45:56.509Z,87.99
2022-08-24T23:49:03.327Z,87.83
2022-08-24T23:52:06.463Z,88.50
2022-08-24T23:55:20.889Z,88.47
2022-08-24T23:58:26.192Z,88.33
